sensor_id;sensor_type;location;lat;lon;timestamp;P1;durP1;ratioP1;P2;durP2;ratioP2
56373;SDS011;58212;47.034;7.376;2024-01-11T00:01:39;39.30;;;20.27;;
56373;SDS011;58212;47.034;7.376;2024-01-11T00:04:10;37.85;;;19.70;;
56373;SDS011;58212;47.034;7.376;2024-01-11T00:06:39;36.67;;;19.55;;
56373;SDS011;58212;47.034;7.376;2024-01-11T00:09:07;40.10;;;19.90;;
56373;SDS011;58212;47.034;7.376;2024-01-11T00:11:34;39.75;;;21.80;;
56373;SDS011;58212;47.034;7.376;2024-01-11T00:14:03;37.17;;;19.98;;
56373;SDS011;58212;47.034;7.376;2024-01-11T00:16:29;37.78;;;18.92;;
56373;SDS011;58212;47.034;7.376;2024-01-11T00:18:56;37.35;;;20.10;;
56373;SDS011;58212;47.034;7.376;2024-01-11T00:21:23;38.58;;;20.35;;
56373;SDS011;58212;47.034;7.376;2024-01-11T00:23:50;37.83;;;19.73;;
56373;SDS011;58212;47.034;7.376;2024-01-11T00:26:17;37.63;;;19.90;;
56373;SDS011;58212;47.034;7.376;2024-01-11T00:28:44;38.38;;;19.65;;
56373;SDS011;58212;47.034;7.376;2024-01-11T00:31:12;36.75;;;19.88;;
56373;SDS011;58212;47.034;7.376;2024-01-11T00:33:39;38.10;;;20.15;;
56373;SDS011;58212;47.034;7.376;2024-01-11T00:36:06;40.00;;;20.47;;
56373;SDS011;58212;47.034;7.376;2024-01-11T00:38:32;38.15;;;19.60;;
56373;SDS011;58212;47.034;7.376;2024-01-11T00:40:59;38.50;;;21.40;;
56373;SDS011;58212;47.034;7.376;2024-01-11T00:43:26;39.80;;;20.17;;
56373;SDS011;58212;47.034;7.376;2024-01-11T00:45:53;40.95;;;19.85;;
56373;SDS011;58212;47.034;7.376;2024-01-11T00:48:21;36.83;;;20.35;;
56373;SDS011;58212;47.034;7.376;2024-01-11T00:50:48;39.45;;;19.33;;
56373;SDS011;58212;47.034;7.376;2024-01-11T00:53:15;40.53;;;21.17;;
56373;SDS011;58212;47.034;7.376;2024-01-11T00:55:42;38.50;;;19.15;;
56373;SDS011;58212;47.034;7.376;2024-01-11T00:58:08;37.47;;;20.08;;
56373;SDS011;58212;47.034;7.376;2024-01-11T01:00:35;35.22;;;19.42;;
56373;SDS011;58212;47.034;7.376;2024-01-11T01:03:02;38.25;;;19.20;;
56373;SDS011;58212;47.034;7.376;2024-01-11T01:05:31;37.20;;;19.88;;
56373;SDS011;58212;47.034;7.376;2024-01-11T01:07:57;37.38;;;19.27;;
56373;SDS011;58212;47.034;7.376;2024-01-11T01:10:24;37.90;;;19.13;;
56373;SDS011;58212;47.034;7.376;2024-01-11T01:12:51;38.88;;;20.20;;
56373;SDS011;58212;47.034;7.376;2024-01-11T01:15:18;34.50;;;18.80;;
56373;SDS011;58212;47.034;7.376;2024-01-11T01:17:45;36.35;;;19.20;;
56373;SDS011;58212;47.034;7.376;2024-01-11T01:20:11;39.00;;;20.33;;
56373;SDS011;58212;47.034;7.376;2024-01-11T01:22:41;38.03;;;19.65;;
56373;SDS011;58212;47.034;7.376;2024-01-11T01:25:07;37.30;;;19.63;;
56373;SDS011;58212;47.034;7.376;2024-01-11T01:27:34;39.03;;;20.83;;
56373;SDS011;58212;47.034;7.376;2024-01-11T01:30:01;34.08;;;18.95;;
56373;SDS011;58212;47.034;7.376;2024-01-11T01:32:28;34.25;;;19.92;;
56373;SDS011;58212;47.034;7.376;2024-01-11T01:34:55;37.00;;;18.65;;
56373;SDS011;58212;47.034;7.376;2024-01-11T01:37:22;33.97;;;18.67;;
56373;SDS011;58212;47.034;7.376;2024-01-11T01:39:50;35.58;;;19.40;;
56373;SDS011;58212;47.034;7.376;2024-01-11T01:42:17;36.00;;;19.88;;
56373;SDS011;58212;47.034;7.376;2024-01-11T01:44:44;35.78;;;19.95;;
56373;SDS011;58212;47.034;7.376;2024-01-11T01:47:10;37.17;;;19.48;;
56373;SDS011;58212;47.034;7.376;2024-01-11T01:49:37;35.78;;;19.05;;
56373;SDS011;58212;47.034;7.376;2024-01-11T01:52:05;35.90;;;19.48;;
56373;SDS011;58212;47.034;7.376;2024-01-11T01:54:33;33.58;;;17.73;;
56373;SDS011;58212;47.034;7.376;2024-01-11T01:57:02;34.67;;;18.35;;
56373;SDS011;58212;47.034;7.376;2024-01-11T01:59:30;42.70;;;21.25;;
56373;SDS011;58212;47.034;7.376;2024-01-11T02:01:58;37.70;;;18.15;;
56373;SDS011;58212;47.034;7.376;2024-01-11T02:04:25;32.55;;;18.73;;
56373;SDS011;58212;47.034;7.376;2024-01-11T02:06:52;39.38;;;19.98;;
56373;SDS011;58212;47.034;7.376;2024-01-11T02:09:20;39.53;;;19.70;;
56373;SDS011;58212;47.034;7.376;2024-01-11T02:11:47;39.97;;;19.93;;
56373;SDS011;58212;47.034;7.376;2024-01-11T02:14:15;39.78;;;19.80;;
56373;SDS011;58212;47.034;7.376;2024-01-11T02:16:42;38.10;;;18.77;;
56373;SDS011;58212;47.034;7.376;2024-01-11T02:19:10;38.33;;;19.60;;
56373;SDS011;58212;47.034;7.376;2024-01-11T02:21:40;35.00;;;18.67;;
56373;SDS011;58212;47.034;7.376;2024-01-11T02:24:09;39.00;;;18.70;;
56373;SDS011;58212;47.034;7.376;2024-01-11T02:26:36;34.55;;;17.95;;
56373;SDS011;58212;47.034;7.376;2024-01-11T02:29:03;31.88;;;17.80;;
56373;SDS011;58212;47.034;7.376;2024-01-11T02:31:30;36.80;;;19.10;;
56373;SDS011;58212;47.034;7.376;2024-01-11T02:33:57;33.88;;;19.08;;
56373;SDS011;58212;47.034;7.376;2024-01-11T02:36:25;35.17;;;17.35;;
56373;SDS011;58212;47.034;7.376;2024-01-11T02:38:52;33.10;;;19.00;;
56373;SDS011;58212;47.034;7.376;2024-01-11T02:41:21;31.38;;;17.35;;
56373;SDS011;58212;47.034;7.376;2024-01-11T02:43:49;32.10;;;17.95;;
56373;SDS011;58212;47.034;7.376;2024-01-11T02:46:15;34.42;;;18.30;;
56373;SDS011;58212;47.034;7.376;2024-01-11T02:48:43;30.35;;;16.50;;
56373;SDS011;58212;47.034;7.376;2024-01-11T02:51:10;28.23;;;16.58;;
56373;SDS011;58212;47.034;7.376;2024-01-11T02:53:36;28.70;;;16.13;;
56373;SDS011;58212;47.034;7.376;2024-01-11T02:56:03;31.67;;;16.75;;
56373;SDS011;58212;47.034;7.376;2024-01-11T02:58:31;33.92;;;18.38;;
56373;SDS011;58212;47.034;7.376;2024-01-11T03:00:58;29.50;;;17.17;;
56373;SDS011;58212;47.034;7.376;2024-01-11T03:03:25;31.40;;;17.13;;
56373;SDS011;58212;47.034;7.376;2024-01-11T03:05:52;33.10;;;17.42;;
56373;SDS011;58212;47.034;7.376;2024-01-11T03:08:18;31.38;;;16.05;;
56373;SDS011;58212;47.034;7.376;2024-01-11T03:10:46;30.33;;;15.60;;
56373;SDS011;58212;47.034;7.376;2024-01-11T03:13:12;29.00;;;16.92;;
56373;SDS011;58212;47.034;7.376;2024-01-11T03:15:41;29.60;;;17.20;;
56373;SDS011;58212;47.034;7.376;2024-01-11T03:18:09;33.58;;;17.17;;
56373;SDS011;58212;47.034;7.376;2024-01-11T03:20:35;29.17;;;16.23;;
56373;SDS011;58212;47.034;7.376;2024-01-11T03:23:02;30.83;;;16.38;;
56373;SDS011;58212;47.034;7.376;2024-01-11T03:25:30;29.27;;;16.23;;
56373;SDS011;58212;47.034;7.376;2024-01-11T03:27:57;30.13;;;16.75;;
56373;SDS011;58212;47.034;7.376;2024-01-11T03:30:25;30.38;;;16.52;;
56373;SDS011;58212;47.034;7.376;2024-01-11T03:32:54;29.60;;;17.17;;
56373;SDS011;58212;47.034;7.376;2024-01-11T03:35:21;27.73;;;15.52;;
56373;SDS011;58212;47.034;7.376;2024-01-11T03:37:47;31.05;;;16.83;;
56373;SDS011;58212;47.034;7.376;2024-01-11T03:40:14;28.70;;;16.40;;
56373;SDS011;58212;47.034;7.376;2024-01-11T03:42:41;27.17;;;15.77;;
56373;SDS011;58212;47.034;7.376;2024-01-11T03:45:08;26.88;;;15.20;;
56373;SDS011;58212;47.034;7.376;2024-01-11T03:47:35;27.75;;;16.15;;
56373;SDS011;58212;47.034;7.376;2024-01-11T03:50:04;27.05;;;15.85;;
56373;SDS011;58212;47.034;7.376;2024-01-11T03:52:31;30.50;;;16.25;;
56373;SDS011;58212;47.034;7.376;2024-01-11T03:54:58;30.90;;;16.00;;
56373;SDS011;58212;47.034;7.376;2024-01-11T03:57:25;25.40;;;15.45;;
56373;SDS011;58212;47.034;7.376;2024-01-11T03:59:51;27.48;;;15.93;;
56373;SDS011;58212;47.034;7.376;2024-01-11T04:02:19;31.00;;;16.65;;
56373;SDS011;58212;47.034;7.376;2024-01-11T04:04:46;28.50;;;16.48;;
56373;SDS011;58212;47.034;7.376;2024-01-11T04:07:14;27.42;;;16.23;;
56373;SDS011;58212;47.034;7.376;2024-01-11T04:09:42;28.85;;;16.63;;
56373;SDS011;58212;47.034;7.376;2024-01-11T04:12:09;30.63;;;16.85;;
56373;SDS011;58212;47.034;7.376;2024-01-11T04:14:37;28.70;;;17.42;;
56373;SDS011;58212;47.034;7.376;2024-01-11T04:17:05;29.95;;;16.45;;
56373;SDS011;58212;47.034;7.376;2024-01-11T04:19:32;30.65;;;17.63;;
56373;SDS011;58212;47.034;7.376;2024-01-11T04:21:58;27.17;;;16.80;;
56373;SDS011;58212;47.034;7.376;2024-01-11T04:24:27;31.55;;;16.90;;
56373;SDS011;58212;47.034;7.376;2024-01-11T04:26:53;28.52;;;17.40;;
56373;SDS011;58212;47.034;7.376;2024-01-11T04:29:20;27.55;;;17.00;;
56373;SDS011;58212;47.034;7.376;2024-01-11T04:31:47;26.80;;;16.67;;
56373;SDS011;58212;47.034;7.376;2024-01-11T04:34:14;31.00;;;17.45;;
56373;SDS011;58212;47.034;7.376;2024-01-11T04:36:41;28.52;;;17.35;;
56373;SDS011;58212;47.034;7.376;2024-01-11T04:39:07;30.70;;;17.58;;
56373;SDS011;58212;47.034;7.376;2024-01-11T04:41:36;28.92;;;17.13;;
56373;SDS011;58212;47.034;7.376;2024-01-11T04:44:03;29.30;;;16.35;;
56373;SDS011;58212;47.034;7.376;2024-01-11T04:46:30;30.40;;;17.13;;
56373;SDS011;58212;47.034;7.376;2024-01-11T04:48:57;30.30;;;17.33;;
56373;SDS011;58212;47.034;7.376;2024-01-11T04:51:24;26.98;;;16.23;;
56373;SDS011;58212;47.034;7.376;2024-01-11T04:53:50;31.27;;;17.33;;
56373;SDS011;58212;47.034;7.376;2024-01-11T04:56:17;28.27;;;15.68;;
56373;SDS011;58212;47.034;7.376;2024-01-11T04:58:45;30.00;;;16.63;;
56373;SDS011;58212;47.034;7.376;2024-01-11T05:01:13;34.92;;;18.05;;
56373;SDS011;58212;47.034;7.376;2024-01-11T05:03:40;30.23;;;16.90;;
56373;SDS011;58212;47.034;7.376;2024-01-11T05:06:07;30.15;;;17.25;;
56373;SDS011;58212;47.034;7.376;2024-01-11T05:08:34;29.50;;;17.30;;
56373;SDS011;58212;47.034;7.376;2024-01-11T05:11:00;29.75;;;15.50;;
56373;SDS011;58212;47.034;7.376;2024-01-11T05:13:27;51.95;;;23.00;;
56373;SDS011;58212;47.034;7.376;2024-01-11T05:15:55;27.80;;;15.80;;
56373;SDS011;58212;47.034;7.376;2024-01-11T05:18:22;30.80;;;16.17;;
56373;SDS011;58212;47.034;7.376;2024-01-11T05:20:49;28.70;;;16.83;;
56373;SDS011;58212;47.034;7.376;2024-01-11T05:23:16;27.88;;;15.52;;
56373;SDS011;58212;47.034;7.376;2024-01-11T05:25:43;30.25;;;16.17;;
56373;SDS011;58212;47.034;7.376;2024-01-11T05:28:09;29.38;;;16.17;;
56373;SDS011;58212;47.034;7.376;2024-01-11T05:30:36;32.75;;;18.05;;
56373;SDS011;58212;47.034;7.376;2024-01-11T05:33:04;25.80;;;16.83;;
56373;SDS011;58212;47.034;7.376;2024-01-11T05:35:31;29.55;;;17.42;;
56373;SDS011;58212;47.034;7.376;2024-01-11T05:37:58;35.25;;;17.38;;
56373;SDS011;58212;47.034;7.376;2024-01-11T05:40:24;28.27;;;16.10;;
56373;SDS011;58212;47.034;7.376;2024-01-11T05:42:52;31.33;;;17.58;;
56373;SDS011;58212;47.034;7.376;2024-01-11T05:45:19;30.60;;;17.30;;
56373;SDS011;58212;47.034;7.376;2024-01-11T05:47:46;35.25;;;17.17;;
56373;SDS011;58212;47.034;7.376;2024-01-11T05:50:14;34.45;;;17.05;;
56373;SDS011;58212;47.034;7.376;2024-01-11T05:52:41;31.63;;;18.38;;
56373;SDS011;58212;47.034;7.376;2024-01-11T05:55:09;31.20;;;17.73;;
56373;SDS011;58212;47.034;7.376;2024-01-11T05:57:35;29.85;;;17.40;;
56373;SDS011;58212;47.034;7.376;2024-01-11T06:00:02;31.80;;;17.40;;
56373;SDS011;58212;47.034;7.376;2024-01-11T06:02:31;33.15;;;17.50;;
56373;SDS011;58212;47.034;7.376;2024-01-11T06:04:58;41.25;;;19.67;;
56373;SDS011;58212;47.034;7.376;2024-01-11T06:07:26;30.75;;;16.83;;
56373;SDS011;58212;47.034;7.376;2024-01-11T06:09:53;34.80;;;19.08;;
56373;SDS011;58212;47.034;7.376;2024-01-11T06:12:20;36.75;;;17.98;;
56373;SDS011;58212;47.034;7.376;2024-01-11T06:14:47;30.17;;;17.40;;
56373;SDS011;58212;47.034;7.376;2024-01-11T06:17:13;31.92;;;17.60;;
56373;SDS011;58212;47.034;7.376;2024-01-11T06:19:40;29.83;;;16.60;;
56373;SDS011;58212;47.034;7.376;2024-01-11T06:22:07;32.50;;;17.58;;
56373;SDS011;58212;47.034;7.376;2024-01-11T06:24:35;30.70;;;17.20;;
56373;SDS011;58212;47.034;7.376;2024-01-11T06:27:02;30.70;;;16.10;;
56373;SDS011;58212;47.034;7.376;2024-01-11T06:29:28;27.60;;;15.77;;
56373;SDS011;58212;47.034;7.376;2024-01-11T06:31:55;33.80;;;17.30;;
56373;SDS011;58212;47.034;7.376;2024-01-11T06:34:22;27.70;;;16.10;;
56373;SDS011;58212;47.034;7.376;2024-01-11T06:36:49;31.48;;;16.60;;
56373;SDS011;58212;47.034;7.376;2024-01-11T06:39:15;28.77;;;15.80;;
56373;SDS011;58212;47.034;7.376;2024-01-11T06:41:44;30.48;;;16.08;;
56373;SDS011;58212;47.034;7.376;2024-01-11T06:44:10;33.47;;;17.45;;
56373;SDS011;58212;47.034;7.376;2024-01-11T06:46:37;30.67;;;17.45;;
56373;SDS011;58212;47.034;7.376;2024-01-11T06:49:05;32.25;;;17.88;;
56373;SDS011;58212;47.034;7.376;2024-01-11T06:51:32;32.70;;;17.73;;
56373;SDS011;58212;47.034;7.376;2024-01-11T06:53:59;36.88;;;18.58;;
56373;SDS011;58212;47.034;7.376;2024-01-11T06:56:26;29.02;;;16.75;;
56373;SDS011;58212;47.034;7.376;2024-01-11T06:58:55;36.88;;;19.52;;
56373;SDS011;58212;47.034;7.376;2024-01-11T07:01:23;30.98;;;17.33;;
56373;SDS011;58212;47.034;7.376;2024-01-11T07:03:50;35.28;;;19.42;;
56373;SDS011;58212;47.034;7.376;2024-01-11T07:06:17;26.42;;;16.63;;
56373;SDS011;58212;47.034;7.376;2024-01-11T07:08:44;31.45;;;17.38;;
56373;SDS011;58212;47.034;7.376;2024-01-11T07:11:11;32.50;;;17.17;;
56373;SDS011;58212;47.034;7.376;2024-01-11T07:13:37;30.23;;;17.15;;
56373;SDS011;58212;47.034;7.376;2024-01-11T07:16:06;31.98;;;16.60;;
56373;SDS011;58212;47.034;7.376;2024-01-11T07:18:32;33.47;;;18.55;;
56373;SDS011;58212;47.034;7.376;2024-01-11T07:20:59;35.05;;;17.40;;
56373;SDS011;58212;47.034;7.376;2024-01-11T07:23:26;33.90;;;18.50;;
56373;SDS011;58212;47.034;7.376;2024-01-11T07:25:53;37.58;;;18.88;;
56373;SDS011;58212;47.034;7.376;2024-01-11T07:28:20;36.85;;;18.77;;
56373;SDS011;58212;47.034;7.376;2024-01-11T07:30:50;37.20;;;18.60;;
56373;SDS011;58212;47.034;7.376;2024-01-11T07:33:19;36.40;;;19.52;;
56373;SDS011;58212;47.034;7.376;2024-01-11T07:35:45;31.10;;;17.58;;
56373;SDS011;58212;47.034;7.376;2024-01-11T07:38:13;29.88;;;17.10;;
56373;SDS011;58212;47.034;7.376;2024-01-11T07:40:40;29.02;;;16.98;;
56373;SDS011;58212;47.034;7.376;2024-01-11T07:43:07;28.92;;;16.58;;
56373;SDS011;58212;47.034;7.376;2024-01-11T07:45:33;28.83;;;18.13;;
56373;SDS011;58212;47.034;7.376;2024-01-11T07:48:00;34.53;;;18.52;;
56373;SDS011;58212;47.034;7.376;2024-01-11T07:50:30;46.22;;;23.00;;
56373;SDS011;58212;47.034;7.376;2024-01-11T07:52:57;36.90;;;19.92;;
56373;SDS011;58212;47.034;7.376;2024-01-11T07:55:23;42.35;;;22.60;;
56373;SDS011;58212;47.034;7.376;2024-01-11T07:57:51;32.38;;;18.45;;
56373;SDS011;58212;47.034;7.376;2024-01-11T08:00:18;31.23;;;16.55;;
56373;SDS011;58212;47.034;7.376;2024-01-11T08:02:45;30.15;;;16.02;;
56373;SDS011;58212;47.034;7.376;2024-01-11T08:05:12;30.38;;;16.77;;
56373;SDS011;58212;47.034;7.376;2024-01-11T08:07:40;33.17;;;16.90;;
56373;SDS011;58212;47.034;7.376;2024-01-11T08:10:08;31.45;;;16.27;;
56373;SDS011;58212;47.034;7.376;2024-01-11T08:12:35;31.23;;;17.83;;
56373;SDS011;58212;47.034;7.376;2024-01-11T08:15:02;32.85;;;17.27;;
56373;SDS011;58212;47.034;7.376;2024-01-11T08:17:29;30.92;;;17.30;;
56373;SDS011;58212;47.034;7.376;2024-01-11T08:19:56;33.65;;;17.38;;
56373;SDS011;58212;47.034;7.376;2024-01-11T08:22:23;33.80;;;18.00;;
56373;SDS011;58212;47.034;7.376;2024-01-11T08:24:51;31.35;;;16.65;;
56373;SDS011;58212;47.034;7.376;2024-01-11T08:27:18;31.42;;;17.77;;
56373;SDS011;58212;47.034;7.376;2024-01-11T08:29:45;32.05;;;17.48;;
56373;SDS011;58212;47.034;7.376;2024-01-11T08:32:12;33.13;;;17.77;;
56373;SDS011;58212;47.034;7.376;2024-01-11T08:34:39;31.77;;;16.85;;
56373;SDS011;58212;47.034;7.376;2024-01-11T08:37:05;35.50;;;16.80;;
56373;SDS011;58212;47.034;7.376;2024-01-11T08:39:32;31.10;;;16.52;;
56373;SDS011;58212;47.034;7.376;2024-01-11T08:42:01;32.42;;;16.63;;
56373;SDS011;58212;47.034;7.376;2024-01-11T08:44:29;41.33;;;18.02;;
56373;SDS011;58212;47.034;7.376;2024-01-11T08:46:56;36.08;;;17.27;;
56373;SDS011;58212;47.034;7.376;2024-01-11T08:49:24;37.65;;;17.30;;
56373;SDS011;58212;47.034;7.376;2024-01-11T08:51:51;39.47;;;18.58;;
56373;SDS011;58212;47.034;7.376;2024-01-11T08:54:18;39.08;;;19.38;;
56373;SDS011;58212;47.034;7.376;2024-01-11T08:56:46;37.60;;;18.02;;
56373;SDS011;58212;47.034;7.376;2024-01-11T08:59:14;39.70;;;19.92;;
56373;SDS011;58212;47.034;7.376;2024-01-11T09:01:41;37.53;;;19.08;;
56373;SDS011;58212;47.034;7.376;2024-01-11T09:04:07;38.53;;;18.48;;
56373;SDS011;58212;47.034;7.376;2024-01-11T09:06:34;38.53;;;17.30;;
56373;SDS011;58212;47.034;7.376;2024-01-11T09:09:01;37.08;;;18.48;;
56373;SDS011;58212;47.034;7.376;2024-01-11T09:11:28;36.70;;;17.67;;
56373;SDS011;58212;47.034;7.376;2024-01-11T09:13:54;41.13;;;19.48;;
56373;SDS011;58212;47.034;7.376;2024-01-11T09:16:23;37.63;;;17.70;;
56373;SDS011;58212;47.034;7.376;2024-01-11T09:18:50;38.72;;;18.10;;
56373;SDS011;58212;47.034;7.376;2024-01-11T09:21:17;37.17;;;18.00;;
56373;SDS011;58212;47.034;7.376;2024-01-11T09:23:44;33.50;;;17.08;;
56373;SDS011;58212;47.034;7.376;2024-01-11T09:26:12;36.53;;;17.67;;
56373;SDS011;58212;47.034;7.376;2024-01-11T09:28:39;32.75;;;17.40;;
56373;SDS011;58212;47.034;7.376;2024-01-11T09:31:06;32.85;;;16.58;;
56373;SDS011;58212;47.034;7.376;2024-01-11T09:33:34;38.17;;;19.08;;
56373;SDS011;58212;47.034;7.376;2024-01-11T09:36:01;36.05;;;17.90;;
56373;SDS011;58212;47.034;7.376;2024-01-11T09:38:28;33.97;;;17.50;;
56373;SDS011;58212;47.034;7.376;2024-01-11T09:40:59;33.70;;;17.90;;
56373;SDS011;58212;47.034;7.376;2024-01-11T09:43:33;33.70;;;17.15;;
56373;SDS011;58212;47.034;7.376;2024-01-11T09:46:00;32.63;;;16.92;;
56373;SDS011;58212;47.034;7.376;2024-01-11T09:48:30;31.48;;;16.50;;
56373;SDS011;58212;47.034;7.376;2024-01-11T09:51:01;32.28;;;16.75;;
56373;SDS011;58212;47.034;7.376;2024-01-11T09:53:28;35.35;;;17.92;;
56373;SDS011;58212;47.034;7.376;2024-01-11T09:55:56;31.30;;;17.08;;
56373;SDS011;58212;47.034;7.376;2024-01-11T09:58:24;31.95;;;16.73;;
56373;SDS011;58212;47.034;7.376;2024-01-11T10:00:52;32.58;;;17.23;;
56373;SDS011;58212;47.034;7.376;2024-01-11T10:03:21;33.20;;;16.77;;
56373;SDS011;58212;47.034;7.376;2024-01-11T10:05:50;28.70;;;16.13;;
56373;SDS011;58212;47.034;7.376;2024-01-11T10:08:19;29.95;;;16.00;;
56373;SDS011;58212;47.034;7.376;2024-01-11T10:10:48;29.23;;;15.75;;
56373;SDS011;58212;47.034;7.376;2024-01-11T10:13:15;31.95;;;15.77;;
56373;SDS011;58212;47.034;7.376;2024-01-11T10:15:42;30.85;;;16.73;;
56373;SDS011;58212;47.034;7.376;2024-01-11T10:18:10;33.08;;;17.83;;
56373;SDS011;58212;47.034;7.376;2024-01-11T10:20:37;31.80;;;16.30;;
56373;SDS011;58212;47.034;7.376;2024-01-11T10:23:06;29.27;;;16.13;;
56373;SDS011;58212;47.034;7.376;2024-01-11T10:25:35;32.15;;;16.00;;
56373;SDS011;58212;47.034;7.376;2024-01-11T10:28:03;33.38;;;16.05;;
56373;SDS011;58212;47.034;7.376;2024-01-11T10:30:31;30.42;;;16.40;;
56373;SDS011;58212;47.034;7.376;2024-01-11T10:32:59;32.33;;;15.85;;
56373;SDS011;58212;47.034;7.376;2024-01-11T10:35:26;35.67;;;17.25;;
56373;SDS011;58212;47.034;7.376;2024-01-11T10:37:52;34.47;;;16.75;;
56373;SDS011;58212;47.034;7.376;2024-01-11T10:40:22;33.92;;;17.00;;
56373;SDS011;58212;47.034;7.376;2024-01-11T10:42:51;33.08;;;17.90;;
56373;SDS011;58212;47.034;7.376;2024-01-11T10:45:19;32.17;;;17.17;;
56373;SDS011;58212;47.034;7.376;2024-01-11T10:47:50;33.92;;;16.20;;
56373;SDS011;58212;47.034;7.376;2024-01-11T10:50:18;32.38;;;15.68;;
56373;SDS011;58212;47.034;7.376;2024-01-11T10:52:51;34.75;;;17.67;;
56373;SDS011;58212;47.034;7.376;2024-01-11T10:55:30;31.63;;;16.33;;
56373;SDS011;58212;47.034;7.376;2024-01-11T10:57:59;31.98;;;17.15;;
56373;SDS011;58212;47.034;7.376;2024-01-11T11:00:27;33.97;;;17.77;;
56373;SDS011;58212;47.034;7.376;2024-01-11T11:02:55;34.15;;;17.27;;
56373;SDS011;58212;47.034;7.376;2024-01-11T11:05:23;32.67;;;16.90;;
56373;SDS011;58212;47.034;7.376;2024-01-11T11:07:52;31.77;;;17.00;;
56373;SDS011;58212;47.034;7.376;2024-01-11T11:10:21;30.63;;;15.05;;
56373;SDS011;58212;47.034;7.376;2024-01-11T11:12:49;34.42;;;16.38;;
56373;SDS011;58212;47.034;7.376;2024-01-11T11:15:17;29.42;;;16.90;;
56373;SDS011;58212;47.034;7.376;2024-01-11T11:17:45;30.05;;;14.48;;
56373;SDS011;58212;47.034;7.376;2024-01-11T11:20:12;30.55;;;16.35;;
56373;SDS011;58212;47.034;7.376;2024-01-11T11:22:40;31.67;;;16.70;;
56373;SDS011;58212;47.034;7.376;2024-01-11T11:25:08;31.38;;;16.95;;
56373;SDS011;58212;47.034;7.376;2024-01-11T11:27:35;31.98;;;16.48;;
56373;SDS011;58212;47.034;7.376;2024-01-11T11:30:04;31.38;;;16.25;;
56373;SDS011;58212;47.034;7.376;2024-01-11T11:32:35;28.50;;;15.43;;
56373;SDS011;58212;47.034;7.376;2024-01-11T11:35:02;31.80;;;15.07;;
56373;SDS011;58212;47.034;7.376;2024-01-11T11:37:30;34.30;;;17.70;;
56373;SDS011;58212;47.034;7.376;2024-01-11T11:39:57;32.33;;;16.23;;
56373;SDS011;58212;47.034;7.376;2024-01-11T11:42:25;32.75;;;16.38;;
56373;SDS011;58212;47.034;7.376;2024-01-11T11:44:53;25.45;;;13.93;;
56373;SDS011;58212;47.034;7.376;2024-01-11T11:47:24;27.25;;;14.88;;
56373;SDS011;58212;47.034;7.376;2024-01-11T11:50:07;31.83;;;15.50;;
56373;SDS011;58212;47.034;7.376;2024-01-11T11:52:36;28.55;;;14.88;;
56373;SDS011;58212;47.034;7.376;2024-01-11T11:55:06;27.33;;;14.98;;
56373;SDS011;58212;47.034;7.376;2024-01-11T11:57:34;27.63;;;14.45;;
56373;SDS011;58212;47.034;7.376;2024-01-11T12:00:02;26.60;;;14.13;;
56373;SDS011;58212;47.034;7.376;2024-01-11T12:02:38;27.10;;;13.40;;
56373;SDS011;58212;47.034;7.376;2024-01-11T12:05:06;26.52;;;15.27;;
56373;SDS011;58212;47.034;7.376;2024-01-11T12:07:33;27.27;;;14.60;;
56373;SDS011;58212;47.034;7.376;2024-01-11T12:10:00;27.85;;;14.23;;
56373;SDS011;58212;47.034;7.376;2024-01-11T12:12:27;26.83;;;14.15;;
56373;SDS011;58212;47.034;7.376;2024-01-11T12:14:54;32.63;;;15.68;;
56373;SDS011;58212;47.034;7.376;2024-01-11T12:17:21;26.48;;;14.43;;
56373;SDS011;58212;47.034;7.376;2024-01-11T12:19:49;26.70;;;14.57;;
56373;SDS011;58212;47.034;7.376;2024-01-11T12:22:17;25.02;;;14.32;;
56373;SDS011;58212;47.034;7.376;2024-01-11T12:24:45;27.10;;;13.95;;
56373;SDS011;58212;47.034;7.376;2024-01-11T12:27:12;27.60;;;13.80;;
56373;SDS011;58212;47.034;7.376;2024-01-11T12:29:39;27.95;;;14.68;;
56373;SDS011;58212;47.034;7.376;2024-01-11T12:32:06;27.90;;;14.68;;
56373;SDS011;58212;47.034;7.376;2024-01-11T12:34:36;26.35;;;14.57;;
56373;SDS011;58212;47.034;7.376;2024-01-11T12:37:04;29.33;;;14.10;;
56373;SDS011;58212;47.034;7.376;2024-01-11T12:39:31;27.77;;;15.73;;
56373;SDS011;58212;47.034;7.376;2024-01-11T12:41:58;27.15;;;14.85;;
56373;SDS011;58212;47.034;7.376;2024-01-11T12:44:25;30.13;;;15.35;;
56373;SDS011;58212;47.034;7.376;2024-01-11T12:46:52;35.05;;;17.77;;
56373;SDS011;58212;47.034;7.376;2024-01-11T12:49:19;42.42;;;21.42;;
56373;SDS011;58212;47.034;7.376;2024-01-11T12:51:46;39.30;;;18.85;;
56373;SDS011;58212;47.034;7.376;2024-01-11T12:54:14;32.22;;;17.73;;
56373;SDS011;58212;47.034;7.376;2024-01-11T12:56:44;28.55;;;14.88;;
56373;SDS011;58212;47.034;7.376;2024-01-11T12:59:11;25.08;;;13.77;;
56373;SDS011;58212;47.034;7.376;2024-01-11T13:02:06;24.90;;;13.07;;
56373;SDS011;58212;47.034;7.376;2024-01-11T13:04:33;25.10;;;13.98;;
56373;SDS011;58212;47.034;7.376;2024-01-11T13:07:00;20.60;;;12.23;;
56373;SDS011;58212;47.034;7.376;2024-01-11T13:09:29;24.40;;;13.68;;
56373;SDS011;58212;47.034;7.376;2024-01-11T13:11:55;26.38;;;14.27;;
56373;SDS011;58212;47.034;7.376;2024-01-11T13:14:22;23.20;;;13.00;;
56373;SDS011;58212;47.034;7.376;2024-01-11T13:16:49;22.67;;;13.32;;
56373;SDS011;58212;47.034;7.376;2024-01-11T13:19:16;28.40;;;13.45;;
56373;SDS011;58212;47.034;7.376;2024-01-11T13:21:43;27.48;;;14.70;;
56373;SDS011;58212;47.034;7.376;2024-01-11T13:24:10;25.65;;;14.02;;
56373;SDS011;58212;47.034;7.376;2024-01-11T13:26:39;25.55;;;13.35;;
56373;SDS011;58212;47.034;7.376;2024-01-11T13:29:06;26.55;;;14.00;;
56373;SDS011;58212;47.034;7.376;2024-01-11T13:31:33;26.50;;;14.23;;
56373;SDS011;58212;47.034;7.376;2024-01-11T13:34:00;25.77;;;13.60;;
56373;SDS011;58212;47.034;7.376;2024-01-11T13:36:27;22.90;;;13.30;;
56373;SDS011;58212;47.034;7.376;2024-01-11T13:38:54;25.92;;;14.02;;
56373;SDS011;58212;47.034;7.376;2024-01-11T13:41:21;26.42;;;13.65;;
56373;SDS011;58212;47.034;7.376;2024-01-11T13:43:49;26.80;;;14.77;;
56373;SDS011;58212;47.034;7.376;2024-01-11T13:46:16;26.23;;;14.38;;
56373;SDS011;58212;47.034;7.376;2024-01-11T13:48:45;27.42;;;15.23;;
56373;SDS011;58212;47.034;7.376;2024-01-11T13:51:12;26.92;;;14.32;;
56373;SDS011;58212;47.034;7.376;2024-01-11T13:53:40;30.27;;;16.52;;
56373;SDS011;58212;47.034;7.376;2024-01-11T13:56:07;25.95;;;14.02;;
56373;SDS011;58212;47.034;7.376;2024-01-11T13:58:34;28.67;;;14.85;;
56373;SDS011;58212;47.034;7.376;2024-01-11T14:01:03;27.75;;;15.30;;
56373;SDS011;58212;47.034;7.376;2024-01-11T14:03:29;27.42;;;14.85;;
56373;SDS011;58212;47.034;7.376;2024-01-11T14:05:56;29.17;;;14.75;;
56373;SDS011;58212;47.034;7.376;2024-01-11T14:08:24;27.15;;;14.90;;
56373;SDS011;58212;47.034;7.376;2024-01-11T14:10:51;27.13;;;15.00;;
56373;SDS011;58212;47.034;7.376;2024-01-11T14:13:18;28.83;;;15.85;;
56373;SDS011;58212;47.034;7.376;2024-01-11T14:15:45;25.70;;;15.00;;
56373;SDS011;58212;47.034;7.376;2024-01-11T14:18:15;26.83;;;13.93;;
56373;SDS011;58212;47.034;7.376;2024-01-11T14:20:41;27.42;;;14.50;;
56373;SDS011;58212;47.034;7.376;2024-01-11T14:23:09;28.00;;;14.50;;